Sol'-Iletsk, Russia
Current Conditions -  °F | °C
As of 5:00 AM on Thursday 23 Oct 2014 (Local Time) from UWOO Reporting Station
Overcast Overcast  
Wind Chill: 22°   Ceiling: 2000
Heat Index: 32°   Visibility: 3mi
Dew Point: 25°   Wind: 13mph
Humidity: 75%   Direction: 280°W
Pressure: 29.74"   Gusts: NA
Location:  51.16°N, 55°E
Report Text: UWOO 230000Z 28006MPS P5000 OVC020CB M00/M04 Q1007 26290055NOSIG RMK QFE744/0993 0M-0900
Loading
Personal Weather Stations






























Interactive Weather Map
Tropical Storm Tracking
New forecast layout! Learn more

10-Day Weather Forecast

Advertisements
Track Severe Weather on mobile